MV Knight Dragon — VD3152 — position and weather

sailwx.info

Track history (hours):
 
Tides and Currents Weather Stations Pressure Air Temp Water Temp Dewpoint Dewpoint Depression Visibility Wind Speed Wind Dir Waves Ship Positions

MV Knight Dragon

Last reported at 2018-Jul-16 22:58 UTC. Time now 2018-Jul-17 00:07 UTC.
Position N 51°13' W 129°06'.

Length 30 m; draft 3 m.

Type: Fishing. MMSI: 316003587.

Date/timePositionNaut miles runAvg speedWind from/ knotsBaromVisibWave heightAir tempDewpointWater temp
2018-Jul-16 22:58N 51°13' W 129°06'3 5.9
2018-Jul-16 22:29N 51°14' W 129°10'4 7.9
2018-Jul-16 21:59N 51°16' W 129°15'4 7.5
2018-Jul-16 21:25N 51°19' W 129°20'2 3.8
2018-Jul-16 20:58N 51°21' W 129°21'3 2.7
2018-Jul-16 19:47N 51°22' W 129°26'2 3.0
2018-Jul-16 19:16N 51°21' W 129°23'1 3.3
2018-Jul-16 18:59N 51°22' W 129°23'3 2.7
2018-Jul-16 17:54N 51°22' W 129°18'1 2.3
2018-Jul-16 17:30N 51°22' W 129°19'1 2.8
2018-Jul-16 16:58N 51°22' W 129°22'2 2.9
2018-Jul-16 16:16N 51°23' W 129°25'1 1.7
2018-Jul-16 15:48N 51°22' W 129°24'1 2.1
2018-Jul-16 15:29N 51°22' W 129°23'1 2.9
2018-Jul-16 15:00N 51°22' W 129°21'2 3.0
2018-Jul-16 14:24N 51°22' W 129°18'2 3.1
2018-Jul-16 13:39N 51°23' W 129°14'0 3.2
2018-Jul-16 13:30N 51°23' W 129°14'2 3.2
2018-Jul-16 13:00N 51°24' W 129°12'2 3.2
2018-Jul-16 12:25N 51°24' W 129°09'3 6.8
2018-Jul-16 12:00N 51°26' W 129°13'4 8.0
2018-Jul-16 11:29N 51°28' W 129°19'0 1.0
2018-Jul-16 11:00N 51°28' W 129°20'0 0.9
2018-Jul-16 10:30N 51°28' W 129°20'0 0.9
2018-Jul-16 10:00N 51°28' W 129°21'1 1.0
2018-Jul-16 09:27N 51°28' W 129°22'0 1.1
2018-Jul-16 09:00N 51°27' W 129°23'1 1.1
2018-Jul-16 08:30N 51°27' W 129°23'1 1.0
2018-Jul-16 07:59N 51°27' W 129°24'0 0.9
2018-Jul-16 07:30N 51°26' W 129°24'0 0.8
2018-Jul-16 06:59N 51°26' W 129°24'2 4.2
2018-Jul-16 06:30N 51°24' W 129°22'2 4.5
2018-Jul-16 06:00N 51°22' W 129°21'1 0.9
2018-Jul-16 05:25N 51°22' W 129°21'1 2.3
2018-Jul-16 04:59N 51°22' W 129°23'1 2.3
2018-Jul-16 04:29N 51°23' W 129°24'3 1.1
2018-Jul-16 02:11N 51°22' W 129°21'2 1.1
2018-Jul-16 00:35N 51°21' W 129°19'1 2.5
2018-Jul-16 00:22N 51°20' W 129°18'1 1.4
2018-Jul-15 23:57N 51°20' W 129°19'4 2.6
2018-Jul-15 22:32N 51°20' W 129°25'0 2.4
2018-Jul-15 22:29N 51°20' W 129°26'8 1.8
2018-Jul-15 17:49N 51°21' W 129°12'2 2.5
2018-Jul-15 16:57N 51°20' W 129°16'3 0.8
2018-Jul-15 13:06N 51°22' W 129°20'1 2.7
2018-Jul-15 12:48N 51°22' W 129°22'1 2.9
2018-Jul-15 12:19N 51°23' W 129°24'1 2.5
2018-Jul-15 11:58N 51°22' W 129°22'2 4.9
2018-Jul-15 11:30N 51°24' W 129°20'1 1.1
2018-Jul-15 10:55N 51°25' W 129°20'0 0.9
2018-Jul-15 10:30N 51°25' W 129°21'0 0.9
2018-Jul-15 10:00N 51°24' W 129°22'0 0.9
2018-Jul-15 09:30N 51°24' W 129°22'1 1.4
2018-Jul-15 09:00N 51°24' W 129°22'3 5.3
2018-Jul-15 08:30N 51°22' W 129°19'3 5.4
2018-Jul-15 08:00N 51°20' W 129°15'3 5.4
2018-Jul-15 07:29N 51°19' W 129°12'3 5.2
2018-Jul-15 07:00N 51°17' W 129°08'3 5.3
2018-Jul-15 06:28N 51°15' W 129°05'3 5.5
2018-Jul-15 06:00N 51°14' W 129°02'3 5.3
2018-Jul-15 05:30N 51°12' W 128°59'1 2.4
2018-Jul-15 05:00N 51°12' W 128°57'2 2.9
2018-Jul-15 04:23N 51°13' W 128°54'1 2.6
2018-Jul-15 04:00N 51°13' W 128°53'1 2.6
2018-Jul-15 03:30N 51°13' W 128°51'1 2.9
2018-Jul-15 02:59N 51°13' W 128°48'1 2.3
2018-Jul-15 02:30N 51°13' W 128°47'1 2.4
2018-Jul-15 01:59N 51°13' W 128°48'1 2.8
2018-Jul-15 01:30N 51°13' W 128°51'1 2.7
2018-Jul-15 01:00N 51°13' W 128°53'1 2.7
2018-Jul-15 00:30N 51°13' W 128°55'1 2.7
2018-Jul-15 00:00N 51°12' W 128°57'2 2.8
2018-Jul-14 23:27N 51°12' W 128°59'2 1.9
2018-Jul-14 22:18N 51°13' W 128°56'3 3.0
2018-Jul-14 21:20N 51°14' W 128°51'1 3.0
2018-Jul-14 21:00N 51°14' W 128°50'1 3.0
2018-Jul-14 20:30N 51°13' W 128°47'0 0.6
2018-Jul-14 20:00N 51°13' W 128°47'2 2.7
2018-Jul-14 19:18N 51°14' W 128°50'1 2.9
2018-Jul-14 19:00N 51°14' W 128°51'2 2.9
2018-Jul-14 18:27N 51°13' W 128°54'2 3.0
2018-Jul-14 17:52N 51°12' W 128°56'1 3.0
2018-Jul-14 17:28N 51°12' W 128°58'1 2.3
2018-Jul-14 16:54N 51°11' W 128°59'2 6.1
2018-Jul-14 16:30N 51°10' W 128°56'3 6.2
2018-Jul-14 16:00N 51°08' W 128°52'3 6.0
2018-Jul-14 15:30N 51°07' W 128°47'3 5.9
2018-Jul-14 14:58N 51°05' W 128°43'3 7.0
2018-Jul-14 14:30N 51°05' W 128°38'7 7.2
2018-Jul-14 13:30N 51°03' W 128°27'3 6.5
2018-Jul-14 13:00N 51°02' W 128°22'3 6.5
2018-Jul-14 12:28N 50°60' W 128°18'3 6.7
2018-Jul-14 12:00N 50°58' W 128°13'10 7.0
2018-Jul-14 10:35N 50°54' W 127°59'4 7.9
2018-Jul-14 10:05N 50°53' W 127°53'1 6.8
2018-Jul-14 09:57N 50°52' W 127°52'3 6.8
2018-Jul-14 09:29N 50°51' W 127°47'4 7.7
2018-Jul-14 08:59N 50°50' W 127°41'4 7.5
2018-Jul-14 08:30N 50°49' W 127°36'4 7.3
2018-Jul-14 08:00N 50°47' W 127°31'3 6.6
2018-Jul-14 07:30N 50°44' W 127°28'1 1.8
2018-Jul-14 06:58N 50°43' W 127°28'0 0.0
2018-Jul-14 06:30N 50°43' W 127°28'0 0.0
2018-Jul-14 06:00N 50°43' W 127°28'0 0.0
2018-Jul-14 05:30N 50°43' W 127°28'0 0.0
2018-Jul-14 04:55N 50°43' W 127°28'0 0.0
2018-Jul-14 04:23N 50°43' W 127°28'0 0.0
2018-Jul-14 04:00N 50°43' W 127°28'0 0.1
2018-Jul-14 03:28N 50°43' W 127°28'0 0.1
2018-Jul-14 02:59N 50°43' W 127°28'0 0.0
2018-Jul-14 02:30N 50°43' W 127°28'0 0.0
2018-Jul-14 01:59N 50°43' W 127°28'0 0.1
2018-Jul-14 01:30N 50°43' W 127°28'0 0.1
2018-Jul-14 01:00N 50°43' W 127°28'0 0.0
2018-Jul-14 00:30N 50°43' W 127°28'0 0.0
2018-Jul-14 00:00N 50°43' W 127°28'0 0.0
2018-Jul-13 23:30N 50°43' W 127°28'0 0.0
2018-Jul-13 23:00N 50°43' W 127°28'0 0.0
2018-Jul-13 22:30N 50°43' W 127°28'0 0.0
2018-Jul-13 22:00N 50°43' W 127°28'0 0.2
2018-Jul-13 21:30N 50°43' W 127°28'0 0.2
2018-Jul-13 21:00N 50°43' W 127°28'1 1.8
2018-Jul-13 20:26N 50°43' W 127°29'0 0.0
2018-Jul-13 19:56N 50°43' W 127°29'0 0.0
2018-Jul-13 19:29N 50°43' W 127°29'0 0.0
2018-Jul-13 16:04N 50°43' W 127°29'0 0.0
2018-Jul-13 15:55N 50°43' W 127°29'0 0.0
2018-Jul-13 15:23N 50°43' W 127°29'0 0.0
2018-Jul-13 14:57N 50°43' W 127°29'0 0.0
2018-Jul-13 13:18N 50°43' W 127°29'0 0.0
2018-Jul-13 12:56N 50°43' W 127°29'0 0.0
2018-Jul-13 06:17N 50°43' W 127°29'0 0.0
2018-Jul-13 05:55N 50°43' W 127°29'0 0.0
2018-Jul-13 02:49N 50°43' W 127°29'0 0.0
2018-Jul-13 02:22N 50°43' W 127°29'0 0.0
2018-Jul-13 01:58N 50°43' W 127°29'0 0.0
2018-Jul-13 01:20N 50°43' W 127°29'0 0.0
2018-Jul-13 00:55N 50°43' W 127°29'0 0.0
2018-Jul-13 00:30N 50°43' W 127°29'0 0.0
2018-Jul-12 23:52N 50°43' W 127°29'0 0.0
2018-Jul-12 20:48N 50°43' W 127°29'0 0.0
2018-Jul-12 20:27N 50°43' W 127°29'0 0.0
2018-Jul-12 19:58N 50°43' W 127°29'0 0.0
2018-Jul-12 19:30N 50°43' W 127°29'0 0.0
2018-Jul-12 18:51N 50°43' W 127°29'0 0.0
2018-Jul-12 16:03N 50°43' W 127°29'0 0.0
2018-Jul-12 15:33N 50°43' W 127°29'0 0.0
2018-Jul-12 15:25N 50°43' W 127°29'0 0.0
2018-Jul-12 15:00N 50°43' W 127°29'0 0.0
2018-Jul-12 07:52N 50°43' W 127°29'0 0.0
2018-Jul-12 07:23N 50°43' W 127°29'0 0.0
2018-Jul-11 22:20N 50°43' W 127°29'0 0.0
2018-Jul-11 21:58N 50°43' W 127°29'0 0.0
2018-Jul-11 21:30N 50°43' W 127°29'0 0.0
2018-Jul-11 20:55N 50°43' W 127°29'0 0.0
2018-Jul-11 20:30N 50°43' W 127°29'0 0.0
2018-Jul-11 19:52N 50°43' W 127°29'0 0.0
2018-Jul-11 19:28N 50°43' W 127°29'0 0.0
2018-Jul-11 19:00N 50°43' W 127°29'0 0.0
2018-Jul-11 18:30N 50°43' W 127°29'0 0.0
2018-Jul-11 18:00N 50°43' W 127°29'0 0.0
2018-Jul-11 07:34N 50°43' W 127°29'0 0.0
2018-Jul-11 07:27N 50°43' W 127°29'0 0.0
2018-Jul-11 06:56N 50°43' W 127°29'0 0.0
2018-Jul-11 06:24N 50°43' W 127°29'0 0.0
2018-Jul-11 04:50N 50°43' W 127°29'0 0.0
2018-Jul-11 04:29N 50°43' W 127°29'0 0.0
2018-Jul-11 03:56N 50°43' W 127°29'0 0.0
2018-Jul-11 03:17N 50°43' W 127°29'0 0.0
2018-Jul-11 03:00N 50°43' W 127°29'0 0.0
2018-Jul-11 02:30N 50°43' W 127°29'0 0.0
2018-Jul-10 22:31N 50°43' W 127°29'0 1.5
2018-Jul-10 22:23N 50°43' W 127°29'0 0.3
2018-Jul-10 21:59N 50°43' W 127°29'0 0.0
2018-Jul-10 21:29N 50°43' W 127°29'0 0.0
2018-Jul-10 20:58N 50°43' W 127°29'0 0.0
2018-Jul-10 20:29N 50°43' W 127°29'0 0.0
2018-Jul-10 19:59N 50°43' W 127°29'0 0.0
2018-Jul-10 19:29N 50°43' W 127°29'0 0.0
2018-Jul-10 18:59N 50°43' W 127°29'0 0.0
2018-Jul-10 18:29N 50°43' W 127°29'0 0.0
2018-Jul-10 17:59N 50°43' W 127°29'0 0.0
2018-Jul-10 17:29N 50°43' W 127°29'0 0.0
2018-Jul-10 16:59N 50°43' W 127°29'0 0.0
2018-Jul-10 16:29N 50°43' W 127°29'0 0.0
2018-Jul-10 15:59N 50°43' W 127°29'0 0.0
2018-Jul-10 15:29N 50°43' W 127°29'0 0.0
2018-Jul-10 14:59N 50°43' W 127°29'0 0.0
2018-Jul-10 14:29N 50°43' W 127°29'0 0.0
2018-Jul-10 13:59N 50°43' W 127°29'0 0.0
2018-Jul-10 13:29N 50°43' W 127°29'0 0.0
2018-Jul-10 12:59N 50°43' W 127°29'0 0.0
2018-Jul-10 12:29N 50°43' W 127°29'0 0.0
2018-Jul-10 11:59N 50°43' W 127°29'0 0.0
2018-Jul-10 11:30N 50°43' W 127°29'1 1.6
2018-Jul-10 11:00N 50°43' W 127°29'3 6.4
2018-Jul-10 10:29N 50°47' W 127°29'3 6.6
2018-Jul-10 10:00N 50°48' W 127°34'3 7.0
2018-Jul-10 09:30N 50°49' W 127°39'4 7.6
2018-Jul-10 09:00N 50°50' W 127°45'21 7.0
2018-Jul-10 05:59N 50°59' W 128°15'4 6.8
2018-Jul-10 05:25N 51°01' W 128°21'3 7.3
2018-Jul-10 04:57N 51°03' W 128°25'4 7.8
2018-Jul-10 04:30N 51°06' W 128°29'3 6.9
2018-Jul-10 03:59N 51°08' W 128°33'4 7.7
2018-Jul-10 03:30N 51°10' W 128°39'4 7.5
2018-Jul-10 03:00N 51°12' W 128°43'2 4.0
2018-Jul-10 02:30N 51°13' W 128°46'2 3.1
2018-Jul-10 02:00N 51°14' W 128°48'2 3.0
2018-Jul-10 01:30N 51°14' W 128°51'2 3.1
2018-Jul-10 01:00N 51°13' W 128°53'3 3.0
2018-Jul-10 00:05N 51°12' W 128°57'1 3.0
2018-Jul-09 23:54N 51°12' W 128°58'1 3.2
2018-Jul-09 23:27N 51°12' W 129°00'5 7.6
2018-Jul-09 22:49N 51°14' W 129°07'9 2.3
2018-Jul-09 18:54N 51°20' W 129°17'3 2.1
2018-Jul-09 17:27N 51°20' W 129°12'2 2.8
2018-Jul-09 16:45N 51°20' W 129°15'1 2.7
2018-Jul-09 16:24N 51°20' W 129°17'3 2.7
2018-Jul-09 15:17N 51°19' W 129°22'1 3.0
2018-Jul-09 14:55N 51°19' W 129°24'2 5.3
2018-Jul-09 14:29N 51°21' W 129°23'3 2.3
2018-Jul-09 13:01N 51°22' W 129°18'1 2.4
2018-Jul-09 12:46N 51°22' W 129°19'1 2.9
2018-Jul-09 12:30N 51°22' W 129°20'2 2.9
2018-Jul-09 11:59N 51°22' W 129°23'1 1.2
2018-Jul-09 11:26N 51°23' W 129°24'1 3.2
2018-Jul-09 11:00N 51°21' W 129°23'0 0.6
2018-Jul-09 10:31N 51°21' W 129°24'0 0.5
2018-Jul-09 09:59N 51°21' W 129°24'0 0.5
2018-Jul-09 09:29N 51°21' W 129°24'0 0.5
2018-Jul-09 08:59N 51°20' W 129°24'0 0.5
2018-Jul-09 08:30N 51°20' W 129°24'0 0.6
2018-Jul-09 08:00N 51°20' W 129°24'0 0.6
2018-Jul-09 07:30N 51°20' W 129°24'0 0.2
2018-Jul-09 07:00N 51°20' W 129°24'2 4.0
2018-Jul-09 06:30N 51°22' W 129°24'2 3.3
2018-Jul-09 06:00N 51°23' W 129°25'1 2.0
2018-Jul-09 05:26N 51°22' W 129°23'1 2.8
2018-Jul-09 04:59N 51°22' W 129°21'2 2.9
2018-Jul-09 04:26N 51°22' W 129°19'1 1.0
2018-Jul-09 03:53N 51°22' W 129°20'1 2.9
2018-Jul-09 03:27N 51°22' W 129°22'1 2.9
2018-Jul-09 03:00N 51°23' W 129°23'2 3.8
2018-Jul-09 02:30N 51°22' W 129°21'2 3.8
2018-Jul-09 01:59N 51°20' W 129°23'8 0.7
2018-Jul-08 13:29N 51°24' W 129°11'2 3.4
2018-Jul-08 13:00N 51°23' W 129°13'1 2.3
2018-Jul-08 12:24N 51°24' W 129°11'1 2.8
2018-Jul-08 11:55N 51°24' W 129°09'0 0.3
2018-Jul-08 11:29N 51°24' W 129°09'3 6.3
2018-Jul-08 11:00N 51°24' W 129°13'1 1.0
2018-Jul-08 10:29N 51°23' W 129°13'0 1.0
2018-Jul-08 09:59N 51°23' W 129°13'0 0.9
2018-Jul-08 09:28N 51°23' W 129°12'0 0.8
2018-Jul-08 09:00N 51°23' W 129°12'1 0.9
2018-Jul-08 08:23N 51°22' W 129°11'0 0.5
2018-Jul-08 07:55N 51°22' W 129°11'0 0.4
2018-Jul-08 07:27N 51°22' W 129°11'0 0.3
2018-Jul-08 06:52N 51°22' W 129°10'4 0.2
2018-Jul-07 11:57N 51°25' W 129°07'2 2.4
2018-Jul-07 11:02N 51°26' W 129°11'1 1.0
2018-Jul-07 10:32N 51°25' W 129°11'0 1.0
2018-Jul-07 10:16N 51°25' W 129°11'0 0.9
2018-Jul-07 09:45N 51°24' W 129°11'0 0.9
2018-Jul-07 09:24N 51°24' W 129°11'2 0.9
2018-Jul-07 07:31N 51°22' W 129°11'0 0.7
2018-Jul-07 07:13N 51°22' W 129°10'0 0.6
2018-Jul-07 06:56N 51°22' W 129°10'  
Track history (hours):
 
Tides and Currents Weather Stations Pressure Air Temp Water Temp Dewpoint Dewpoint Depression Visibility Wind Speed Wind Dir Waves Ship Positions

MV Knight Dragon

Last reported at 2018-Jul-16 22:58 UTC. Time now 2018-Jul-17 00:07 UTC.
Position N 51°13' W 129°06'.

Length 30 m; draft 3 m.

Type: Fishing. MMSI: 316003587.

Date/timePositionNaut miles runAvg speedWind from/ knotsBaromVisibWave heightAir tempDewpointWater temp
2018-Jul-16 22:58N 51°13' W 129°06'3 5.9
2018-Jul-16 22:29N 51°14' W 129°10'4 7.9
2018-Jul-16 21:59N 51°16' W 129°15'4 7.5
2018-Jul-16 21:25N 51°19' W 129°20'2 3.8
2018-Jul-16 20:58N 51°21' W 129°21'3 2.7
2018-Jul-16 19:47N 51°22' W 129°26'2 3.0
2018-Jul-16 19:16N 51°21' W 129°23'1 3.3
2018-Jul-16 18:59N 51°22' W 129°23'3 2.7
2018-Jul-16 17:54N 51°22' W 129°18'1 2.3
2018-Jul-16 17:30N 51°22' W 129°19'1 2.8
2018-Jul-16 16:58N 51°22' W 129°22'2 2.9
2018-Jul-16 16:16N 51°23' W 129°25'1 1.7
2018-Jul-16 15:48N 51°22' W 129°24'1 2.1
2018-Jul-16 15:29N 51°22' W 129°23'1 2.9
2018-Jul-16 15:00N 51°22' W 129°21'2 3.0
2018-Jul-16 14:24N 51°22' W 129°18'2 3.1
2018-Jul-16 13:39N 51°23' W 129°14'0 3.2
2018-Jul-16 13:30N 51°23' W 129°14'2 3.2
2018-Jul-16 13:00N 51°24' W 129°12'2 3.2
2018-Jul-16 12:25N 51°24' W 129°09'3 6.8
2018-Jul-16 12:00N 51°26' W 129°13'4 8.0
2018-Jul-16 11:29N 51°28' W 129°19'0 1.0
2018-Jul-16 11:00N 51°28' W 129°20'0 0.9
2018-Jul-16 10:30N 51°28' W 129°20'0 0.9
2018-Jul-16 10:00N 51°28' W 129°21'1 1.0
2018-Jul-16 09:27N 51°28' W 129°22'0 1.1
2018-Jul-16 09:00N 51°27' W 129°23'1 1.1
2018-Jul-16 08:30N 51°27' W 129°23'1 1.0
2018-Jul-16 07:59N 51°27' W 129°24'0 0.9
2018-Jul-16 07:30N 51°26' W 129°24'0 0.8
2018-Jul-16 06:59N 51°26' W 129°24'2 4.2
2018-Jul-16 06:30N 51°24' W 129°22'2 4.5
2018-Jul-16 06:00N 51°22' W 129°21'1 0.9
2018-Jul-16 05:25N 51°22' W 129°21'1 2.3
2018-Jul-16 04:59N 51°22' W 129°23'1 2.3
2018-Jul-16 04:29N 51°23' W 129°24'3 1.1
2018-Jul-16 02:11N 51°22' W 129°21'2 1.1
2018-Jul-16 00:35N 51°21' W 129°19'1 2.5
2018-Jul-16 00:22N 51°20' W 129°18'1 1.4
2018-Jul-15 23:57N 51°20' W 129°19'4 2.6
2018-Jul-15 22:32N 51°20' W 129°25'0 2.4
2018-Jul-15 22:29N 51°20' W 129°26'8 1.8
2018-Jul-15 17:49N 51°21' W 129°12'2 2.5
2018-Jul-15 16:57N 51°20' W 129°16'3 0.8
2018-Jul-15 13:06N 51°22' W 129°20'1 2.7
2018-Jul-15 12:48N 51°22' W 129°22'1 2.9
2018-Jul-15 12:19N 51°23' W 129°24'1 2.5
2018-Jul-15 11:58N 51°22' W 129°22'2 4.9
2018-Jul-15 11:30N 51°24' W 129°20'1 1.1
2018-Jul-15 10:55N 51°25' W 129°20'0 0.9
2018-Jul-15 10:30N 51°25' W 129°21'0 0.9
2018-Jul-15 10:00N 51°24' W 129°22'0 0.9
2018-Jul-15 09:30N 51°24' W 129°22'1 1.4
2018-Jul-15 09:00N 51°24' W 129°22'3 5.3
2018-Jul-15 08:30N 51°22' W 129°19'3 5.4
2018-Jul-15 08:00N 51°20' W 129°15'3 5.4
2018-Jul-15 07:29N 51°19' W 129°12'3 5.2
2018-Jul-15 07:00N 51°17' W 129°08'3 5.3
2018-Jul-15 06:28N 51°15' W 129°05'3 5.5
2018-Jul-15 06:00N 51°14' W 129°02'3 5.3
2018-Jul-15 05:30N 51°12' W 128°59'1 2.4
2018-Jul-15 05:00N 51°12' W 128°57'2 2.9
2018-Jul-15 04:23N 51°13' W 128°54'1 2.6
2018-Jul-15 04:00N 51°13' W 128°53'1 2.6
2018-Jul-15 03:30N 51°13' W 128°51'1 2.9
2018-Jul-15 02:59N 51°13' W 128°48'1 2.3
2018-Jul-15 02:30N 51°13' W 128°47'1 2.4
2018-Jul-15 01:59N 51°13' W 128°48'1 2.8
2018-Jul-15 01:30N 51°13' W 128°51'1 2.7
2018-Jul-15 01:00N 51°13' W 128°53'1 2.7
2018-Jul-15 00:30N 51°13' W 128°55'1 2.7
2018-Jul-15 00:00N 51°12' W 128°57'2 2.8
2018-Jul-14 23:27N 51°12' W 128°59'2 1.9
2018-Jul-14 22:18N 51°13' W 128°56'3 3.0
2018-Jul-14 21:20N 51°14' W 128°51'1 3.0
2018-Jul-14 21:00N 51°14' W 128°50'1 3.0
2018-Jul-14 20:30N 51°13' W 128°47'0 0.6
2018-Jul-14 20:00N 51°13' W 128°47'2 2.7
2018-Jul-14 19:18N 51°14' W 128°50'1 2.9
2018-Jul-14 19:00N 51°14' W 128°51'2 2.9
2018-Jul-14 18:27N 51°13' W 128°54'2 3.0
2018-Jul-14 17:52N 51°12' W 128°56'1 3.0
2018-Jul-14 17:28N 51°12' W 128°58'1 2.3
2018-Jul-14 16:54N 51°11' W 128°59'2 6.1
2018-Jul-14 16:30N 51°10' W 128°56'3 6.2
2018-Jul-14 16:00N 51°08' W 128°52'3 6.0
2018-Jul-14 15:30N 51°07' W 128°47'3 5.9
2018-Jul-14 14:58N 51°05' W 128°43'3 7.0
2018-Jul-14 14:30N 51°05' W 128°38'7 7.2
2018-Jul-14 13:30N 51°03' W 128°27'3 6.5
2018-Jul-14 13:00N 51°02' W 128°22'3 6.5
2018-Jul-14 12:28N 50°60' W 128°18'3 6.7
2018-Jul-14 12:00N 50°58' W 128°13'10 7.0
2018-Jul-14 10:35N 50°54' W 127°59'4 7.9
2018-Jul-14 10:05N 50°53' W 127°53'1 6.8
2018-Jul-14 09:57N 50°52' W 127°52'3 6.8
2018-Jul-14 09:29N 50°51' W 127°47'4 7.7
2018-Jul-14 08:59N 50°50' W 127°41'4 7.5
2018-Jul-14 08:30N 50°49' W 127°36'4 7.3
2018-Jul-14 08:00N 50°47' W 127°31'3 6.6
2018-Jul-14 07:30N 50°44' W 127°28'1 1.8
2018-Jul-14 06:58N 50°43' W 127°28'0 0.0
2018-Jul-14 06:30N 50°43' W 127°28'0 0.0
2018-Jul-14 06:00N 50°43' W 127°28'0 0.0
2018-Jul-14 05:30N 50°43' W 127°28'0 0.0
2018-Jul-14 04:55N 50°43' W 127°28'0 0.0
2018-Jul-14 04:23N 50°43' W 127°28'0 0.0
2018-Jul-14 04:00N 50°43' W 127°28'0 0.1
2018-Jul-14 03:28N 50°43' W 127°28'0 0.1
2018-Jul-14 02:59N 50°43' W 127°28'0 0.0
2018-Jul-14 02:30N 50°43' W 127°28'0 0.0
2018-Jul-14 01:59N 50°43' W 127°28'0 0.1
2018-Jul-14 01:30N 50°43' W 127°28'0 0.1
2018-Jul-14 01:00N 50°43' W 127°28'0 0.0
2018-Jul-14 00:30N 50°43' W 127°28'0 0.0
2018-Jul-14 00:00N 50°43' W 127°28'0 0.0
2018-Jul-13 23:30N 50°43' W 127°28'0 0.0
2018-Jul-13 23:00N 50°43' W 127°28'0 0.0
2018-Jul-13 22:30N 50°43' W 127°28'0 0.0
2018-Jul-13 22:00N 50°43' W 127°28'0 0.2
2018-Jul-13 21:30N 50°43' W 127°28'0 0.2
2018-Jul-13 21:00N 50°43' W 127°28'1 1.8
2018-Jul-13 20:26N 50°43' W 127°29'0 0.0
2018-Jul-13 19:56N 50°43' W 127°29'0 0.0
2018-Jul-13 19:29N 50°43' W 127°29'0 0.0
2018-Jul-13 16:04N 50°43' W 127°29'0 0.0
2018-Jul-13 15:55N 50°43' W 127°29'0 0.0
2018-Jul-13 15:23N 50°43' W 127°29'0 0.0
2018-Jul-13 14:57N 50°43' W 127°29'0 0.0
2018-Jul-13 13:18N 50°43' W 127°29'0 0.0
2018-Jul-13 12:56N 50°43' W 127°29'0 0.0
2018-Jul-13 06:17N 50°43' W 127°29'0 0.0
2018-Jul-13 05:55N 50°43' W 127°29'0 0.0
2018-Jul-13 02:49N 50°43' W 127°29'0 0.0
2018-Jul-13 02:22N 50°43' W 127°29'0 0.0
2018-Jul-13 01:58N 50°43' W 127°29'0 0.0
2018-Jul-13 01:20N 50°43' W 127°29'0 0.0
2018-Jul-13 00:55N 50°43' W 127°29'0 0.0
2018-Jul-13 00:30N 50°43' W 127°29'0 0.0
2018-Jul-12 23:52N 50°43' W 127°29'0 0.0
2018-Jul-12 20:48N 50°43' W 127°29'0 0.0
2018-Jul-12 20:27N 50°43' W 127°29'0 0.0
2018-Jul-12 19:58N 50°43' W 127°29'0 0.0
2018-Jul-12 19:30N 50°43' W 127°29'0 0.0
2018-Jul-12 18:51N 50°43' W 127°29'0 0.0
2018-Jul-12 16:03N 50°43' W 127°29'0 0.0
2018-Jul-12 15:33N 50°43' W 127°29'0 0.0
2018-Jul-12 15:25N 50°43' W 127°29'0 0.0
2018-Jul-12 15:00N 50°43' W 127°29'0 0.0
2018-Jul-12 07:52N 50°43' W 127°29'0 0.0
2018-Jul-12 07:23N 50°43' W 127°29'0 0.0
2018-Jul-11 22:20N 50°43' W 127°29'0 0.0
2018-Jul-11 21:58N 50°43' W 127°29'0 0.0
2018-Jul-11 21:30N 50°43' W 127°29'0 0.0
2018-Jul-11 20:55N 50°43' W 127°29'0 0.0
2018-Jul-11 20:30N 50°43' W 127°29'0 0.0
2018-Jul-11 19:52N 50°43' W 127°29'0 0.0
2018-Jul-11 19:28N 50°43' W 127°29'0 0.0
2018-Jul-11 19:00N 50°43' W 127°29'0 0.0
2018-Jul-11 18:30N 50°43' W 127°29'0 0.0
2018-Jul-11 18:00N 50°43' W 127°29'0 0.0
2018-Jul-11 07:34N 50°43' W 127°29'0 0.0
2018-Jul-11 07:27N 50°43' W 127°29'0 0.0
2018-Jul-11 06:56N 50°43' W 127°29'0 0.0
2018-Jul-11 06:24N 50°43' W 127°29'0 0.0
2018-Jul-11 04:50N 50°43' W 127°29'0 0.0
2018-Jul-11 04:29N 50°43' W 127°29'0 0.0
2018-Jul-11 03:56N 50°43' W 127°29'0 0.0
2018-Jul-11 03:17N 50°43' W 127°29'0 0.0
2018-Jul-11 03:00N 50°43' W 127°29'0 0.0
2018-Jul-11 02:30N 50°43' W 127°29'0 0.0
2018-Jul-10 22:31N 50°43' W 127°29'0 1.5
2018-Jul-10 22:23N 50°43' W 127°29'0 0.3
2018-Jul-10 21:59N 50°43' W 127°29'0 0.0
2018-Jul-10 21:29N 50°43' W 127°29'0 0.0
2018-Jul-10 20:58N 50°43' W 127°29'0 0.0
2018-Jul-10 20:29N 50°43' W 127°29'0 0.0
2018-Jul-10 19:59N 50°43' W 127°29'0 0.0
2018-Jul-10 19:29N 50°43' W 127°29'0 0.0
2018-Jul-10 18:59N 50°43' W 127°29'0 0.0
2018-Jul-10 18:29N 50°43' W 127°29'0 0.0
2018-Jul-10 17:59N 50°43' W 127°29'0 0.0
2018-Jul-10 17:29N 50°43' W 127°29'0 0.0
2018-Jul-10 16:59N 50°43' W 127°29'0 0.0
2018-Jul-10 16:29N 50°43' W 127°29'0 0.0
2018-Jul-10 15:59N 50°43' W 127°29'0 0.0
2018-Jul-10 15:29N 50°43' W 127°29'0 0.0
2018-Jul-10 14:59N 50°43' W 127°29'0 0.0
2018-Jul-10 14:29N 50°43' W 127°29'0 0.0
2018-Jul-10 13:59N 50°43' W 127°29'0 0.0
2018-Jul-10 13:29N 50°43' W 127°29'0 0.0
2018-Jul-10 12:59N 50°43' W 127°29'0 0.0
2018-Jul-10 12:29N 50°43' W 127°29'0 0.0
2018-Jul-10 11:59N 50°43' W 127°29'0 0.0
2018-Jul-10 11:30N 50°43' W 127°29'1 1.6
2018-Jul-10 11:00N 50°43' W 127°29'3 6.4
2018-Jul-10 10:29N 50°47' W 127°29'3 6.6
2018-Jul-10 10:00N 50°48' W 127°34'3 7.0
2018-Jul-10 09:30N 50°49' W 127°39'4 7.6
2018-Jul-10 09:00N 50°50' W 127°45'21 7.0
2018-Jul-10 05:59N 50°59' W 128°15'4 6.8
2018-Jul-10 05:25N 51°01' W 128°21'3 7.3
2018-Jul-10 04:57N 51°03' W 128°25'4 7.8
2018-Jul-10 04:30N 51°06' W 128°29'3 6.9
2018-Jul-10 03:59N 51°08' W 128°33'4 7.7
2018-Jul-10 03:30N 51°10' W 128°39'4 7.5
2018-Jul-10 03:00N 51°12' W 128°43'2 4.0
2018-Jul-10 02:30N 51°13' W 128°46'2 3.1
2018-Jul-10 02:00N 51°14' W 128°48'2 3.0
2018-Jul-10 01:30N 51°14' W 128°51'2 3.1
2018-Jul-10 01:00N 51°13' W 128°53'3 3.0
2018-Jul-10 00:05N 51°12' W 128°57'1 3.0
2018-Jul-09 23:54N 51°12' W 128°58'1 3.2
2018-Jul-09 23:27N 51°12' W 129°00'5 7.6
2018-Jul-09 22:49N 51°14' W 129°07'9 2.3
2018-Jul-09 18:54N 51°20' W 129°17'3 2.1
2018-Jul-09 17:27N 51°20' W 129°12'2 2.8
2018-Jul-09 16:45N 51°20' W 129°15'1 2.7
2018-Jul-09 16:24N 51°20' W 129°17'3 2.7
2018-Jul-09 15:17N 51°19' W 129°22'1 3.0
2018-Jul-09 14:55N 51°19' W 129°24'2 5.3
2018-Jul-09 14:29N 51°21' W 129°23'3 2.3
2018-Jul-09 13:01N 51°22' W 129°18'1 2.4
2018-Jul-09 12:46N 51°22' W 129°19'1 2.9
2018-Jul-09 12:30N 51°22' W 129°20'2 2.9
2018-Jul-09 11:59N 51°22' W 129°23'1 1.2
2018-Jul-09 11:26N 51°23' W 129°24'1 3.2
2018-Jul-09 11:00N 51°21' W 129°23'0 0.6
2018-Jul-09 10:31N 51°21' W 129°24'0 0.5
2018-Jul-09 09:59N 51°21' W 129°24'0 0.5
2018-Jul-09 09:29N 51°21' W 129°24'0 0.5
2018-Jul-09 08:59N 51°20' W 129°24'0 0.5
2018-Jul-09 08:30N 51°20' W 129°24'0 0.6
2018-Jul-09 08:00N 51°20' W 129°24'0 0.6
2018-Jul-09 07:30N 51°20' W 129°24'0 0.2
2018-Jul-09 07:00N 51°20' W 129°24'2 4.0
2018-Jul-09 06:30N 51°22' W 129°24'2 3.3
2018-Jul-09 06:00N 51°23' W 129°25'1 2.0
2018-Jul-09 05:26N 51°22' W 129°23'1 2.8
2018-Jul-09 04:59N 51°22' W 129°21'2 2.9
2018-Jul-09 04:26N 51°22' W 129°19'1 1.0
2018-Jul-09 03:53N 51°22' W 129°20'1 2.9
2018-Jul-09 03:27N 51°22' W 129°22'1 2.9
2018-Jul-09 03:00N 51°23' W 129°23'2 3.8
2018-Jul-09 02:30N 51°22' W 129°21'2 3.8
2018-Jul-09 01:59N 51°20' W 129°23'8 0.7
2018-Jul-08 13:29N 51°24' W 129°11'2 3.4
2018-Jul-08 13:00N 51°23' W 129°13'1 2.3
2018-Jul-08 12:24N 51°24' W 129°11'1 2.8
2018-Jul-08 11:55N 51°24' W 129°09'0 0.3
2018-Jul-08 11:29N 51°24' W 129°09'3 6.3
2018-Jul-08 11:00N 51°24' W 129°13'1 1.0
2018-Jul-08 10:29N 51°23' W 129°13'0 1.0
2018-Jul-08 09:59N 51°23' W 129°13'0 0.9
2018-Jul-08 09:28N 51°23' W 129°12'0 0.8
2018-Jul-08 09:00N 51°23' W 129°12'1 0.9
2018-Jul-08 08:23N 51°22' W 129°11'0 0.5
2018-Jul-08 07:55N 51°22' W 129°11'0 0.4
2018-Jul-08 07:27N 51°22' W 129°11'0 0.3
2018-Jul-08 06:52N 51°22' W 129°10'4 0.2
2018-Jul-07 11:57N 51°25' W 129°07'2 2.4
2018-Jul-07 11:02N 51°26' W 129°11'1 1.0
2018-Jul-07 10:32N 51°25' W 129°11'0 1.0
2018-Jul-07 10:16N 51°25' W 129°11'0 0.9
2018-Jul-07 09:45N 51°24' W 129°11'0 0.9
2018-Jul-07 09:24N 51°24' W 129°11'2 0.9
2018-Jul-07 07:31N 51°22' W 129°11'0 0.7
2018-Jul-07 07:13N 51°22' W 129°10'0 0.6
2018-Jul-07 06:56N 51°22' W 129°10'  

Dump ship's entire track history